createdAt,value
2023-04-26T00:02:23.071Z,100.00
2023-04-26T00:04:56.043Z,100.00
2023-04-26T00:07:24.884Z,100.00
2023-04-26T00:09:53.280Z,100.00
2023-04-26T00:12:22.218Z,100.00
2023-04-26T00:14:51.604Z,100.00
2023-04-26T00:17:19.490Z,100.00
2023-04-26T00:19:47.400Z,100.00
2023-04-26T00:22:15.371Z,100.00
2023-04-26T00:24:43.475Z,100.00
2023-04-26T00:27:11.418Z,100.00
2023-04-26T00:29:39.367Z,100.00
2023-04-26T00:32:08.927Z,100.00
2023-04-26T00:34:38.007Z,100.00
2023-04-26T00:37:06.707Z,100.00
2023-04-26T00:39:35.505Z,100.00
2023-04-26T00:42:03.459Z,100.00
2023-04-26T00:44:31.427Z,100.00
2023-04-26T00:46:59.546Z,100.00
2023-04-26T00:49:29.564Z,100.00
2023-04-26T00:51:57.579Z,100.00
2023-04-26T00:54:26.264Z,100.00
2023-04-26T00:56:54.233Z,100.00
2023-04-26T00:59:22.325Z,100.00
2023-04-26T01:01:50.660Z,100.00
2023-04-26T01:04:19.340Z,100.00
2023-04-26T01:06:48.967Z,100.00
2023-04-26T01:09:17.047Z,100.00
2023-04-26T01:11:45.491Z,100.00
2023-04-26T01:14:13.842Z,100.00
2023-04-26T01:16:42.128Z,100.00
2023-04-26T01:19:11.019Z,100.00
2023-04-26T01:21:39.049Z,100.00
2023-04-26T01:24:10.489Z,100.00
2023-04-26T01:26:44.070Z,100.00
2023-04-26T01:29:16.259Z,100.00
2023-04-26T01:31:44.759Z,100.00
2023-04-26T01:34:12.957Z,100.00
2023-04-26T01:36:41.302Z,100.00
2023-04-26T01:39:10.606Z,100.00
2023-04-26T01:41:38.655Z,100.00
2023-04-26T01:44:06.840Z,100.00
2023-04-26T01:46:34.857Z,100.00
2023-04-26T01:49:02.890Z,100.00
2023-04-26T01:51:30.813Z,100.00
2023-04-26T01:53:58.721Z,100.00
2023-04-26T01:56:28.064Z,100.00
2023-04-26T01:58:56.510Z,100.00
2023-04-26T02:01:24.540Z,100.00
2023-04-26T02:03:53.197Z,100.00
2023-04-26T02:06:21.367Z,100.00
2023-04-26T02:08:49.640Z,100.00
2023-04-26T02:11:17.728Z,100.00
2023-04-26T02:13:47.029Z,100.00
2023-04-26T02:16:16.192Z,100.00
2023-04-26T02:18:44.514Z,100.00
2023-04-26T02:21:13.039Z,100.00
2023-04-26T02:23:41.222Z,100.00
2023-04-26T02:26:09.218Z,100.00
2023-04-26T02:28:37.336Z,100.00
2023-04-26T02:31:06.943Z,100.00
2023-04-26T02:33:35.000Z,100.00
2023-04-26T02:36:04.378Z,100.00
2023-04-26T02:38:32.305Z,100.00
2023-04-26T02:41:00.597Z,100.00
2023-04-26T02:43:29.162Z,100.00
2023-04-26T02:45:58.766Z,100.00
2023-04-26T02:48:28.151Z,100.00
2023-04-26T02:50:58.042Z,100.00
2023-04-26T02:53:25.983Z,100.00
2023-04-26T02:55:53.915Z,100.00
2023-04-26T02:58:22.148Z,100.00
2023-04-26T03:00:50.156Z,100.00
2023-04-26T03:03:18.260Z,100.00
2023-04-26T03:05:47.939Z,100.00
2023-04-26T03:08:15.974Z,100.00
2023-04-26T03:10:45.691Z,100.00
2023-04-26T03:13:13.671Z,100.00
2023-04-26T03:15:45.796Z,100.00
2023-04-26T03:18:13.748Z,100.00
2023-04-26T03:20:43.190Z,100.00
2023-04-26T03:23:12.468Z,100.00
2023-04-26T03:25:40.566Z,100.00
2023-04-26T03:28:08.503Z,100.00
2023-04-26T03:30:36.408Z,100.00
2023-04-26T03:33:04.548Z,100.00
2023-04-26T03:35:32.512Z,100.00
2023-04-26T03:38:00.408Z,100.00
2023-04-26T03:40:29.969Z,100.00
2023-04-26T03:42:57.972Z,100.00
2023-04-26T03:45:26.926Z,100.00
2023-04-26T03:47:55.077Z,100.00
2023-04-26T03:50:23.160Z,100.00
2023-04-26T03:52:51.139Z,100.00
2023-04-26T03:55:19.074Z,100.00
2023-04-26T03:57:48.364Z,100.00
2023-04-26T04:00:16.808Z,100.00
2023-04-26T04:02:45.102Z,100.00
2023-04-26T04:05:13.256Z,100.00
2023-04-26T04:07:41.337Z,100.00
2023-04-26T04:10:10.727Z,100.00
2023-04-26T04:12:38.771Z,100.00
2023-04-26T04:15:09.435Z,100.00
2023-04-26T04:17:38.670Z,100.00
2023-04-26T04:20:08.825Z,100.00
2023-04-26T04:22:36.753Z,100.00
2023-04-26T04:25:06.004Z,100.00
2023-04-26T04:27:34.003Z,100.00
2023-04-26T04:30:03.690Z,100.00
2023-04-26T04:32:34.128Z,100.00
2023-04-26T04:35:02.176Z,100.00
2023-04-26T04:37:30.089Z,100.00
2023-04-26T04:39:58.031Z,100.00
2023-04-26T04:42:27.356Z,100.00
2023-04-26T04:44:56.163Z,100.00
2023-04-26T04:47:24.382Z,100.00
2023-04-26T04:49:53.933Z,100.00
2023-04-26T04:52:22.035Z,100.00
2023-04-26T04:54:49.972Z,100.00
2023-04-26T04:57:18.943Z,100.00
2023-04-26T04:59:46.870Z,100.00
2023-04-26T05:02:14.944Z,100.00
2023-04-26T05:04:43.130Z,100.00
2023-04-26T05:07:12.982Z,100.00
2023-04-26T05:09:40.906Z,100.00
2023-04-26T05:12:09.027Z,100.00
2023-04-26T05:14:36.934Z,100.00
2023-04-26T05:17:04.835Z,100.00
2023-04-26T05:19:32.730Z,100.00
2023-04-26T05:22:00.619Z,100.00
2023-04-26T05:24:32.244Z,100.00
2023-04-26T05:27:00.245Z,100.00
2023-04-26T05:29:31.146Z,98.00
2023-04-26T05:31:59.122Z,100.00
2023-04-26T05:34:27.051Z,100.00
2023-04-26T05:36:54.970Z,100.00
2023-04-26T05:39:23.129Z,100.00
2023-04-26T05:41:52.450Z,96.12
2023-04-26T05:44:20.390Z,96.37
2023-04-26T05:46:48.452Z,100.00
2023-04-26T05:49:16.345Z,92.61
2023-04-26T05:51:44.448Z,88.86
2023-04-26T05:54:12.399Z,90.54
2023-04-26T05:56:40.379Z,91.36
2023-04-26T05:59:09.792Z,86.08
2023-04-26T06:01:37.738Z,86.54
2023-04-26T06:04:07.186Z,86.86
2023-04-26T06:06:35.942Z,81.99
2023-04-26T06:09:04.615Z,78.82
2023-04-26T06:11:32.520Z,79.48
2023-04-26T06:14:00.413Z,79.43
2023-04-26T06:16:29.704Z,81.52
2023-04-26T06:18:57.611Z,78.12
2023-04-26T06:21:26.491Z,80.53
2023-04-26T06:23:54.658Z,76.62
2023-04-26T06:26:22.768Z,77.47
2023-04-26T06:28:50.805Z,80.64
2023-04-26T06:31:19.987Z,77.75
2023-04-26T06:33:49.826Z,76.06
2023-04-26T06:36:18.159Z,72.39
2023-04-26T06:38:46.076Z,75.01
2023-04-26T06:41:13.966Z,76.87
2023-04-26T06:43:41.914Z,74.25
2023-04-26T06:46:09.859Z,74.86
2023-04-26T06:48:37.780Z,72.94
2023-04-26T06:51:10.318Z,71.38
2023-04-26T06:53:38.571Z,72.90
2023-04-26T06:56:06.956Z,73.01
2023-04-26T06:58:34.863Z,69.01
2023-04-26T07:01:03.723Z,74.83
2023-04-26T07:03:32.586Z,69.60
2023-04-26T07:06:00.734Z,71.76
2023-04-26T07:08:30.033Z,71.21
2023-04-26T07:10:59.211Z,68.33
2023-04-26T07:13:27.157Z,68.71
2023-04-26T07:15:55.324Z,67.51
2023-04-26T07:18:23.247Z,66.30
2023-04-26T07:20:51.151Z,65.53
2023-04-26T07:23:19.090Z,63.78
2023-04-26T07:25:48.350Z,64.13
2023-04-26T07:28:16.311Z,65.14
2023-04-26T07:30:45.358Z,58.77
2023-04-26T07:33:13.401Z,62.78
2023-04-26T07:35:41.377Z,63.18
2023-04-26T07:38:09.822Z,57.00
2023-04-26T07:40:37.711Z,61.54
2023-04-26T07:43:07.242Z,61.28
2023-04-26T07:45:35.193Z,57.72
2023-04-26T07:48:03.220Z,58.32
2023-04-26T07:50:31.450Z,57.16
2023-04-26T07:52:59.399Z,58.18
2023-04-26T07:55:27.556Z,55.12
2023-04-26T07:57:55.721Z,59.90
2023-04-26T08:00:25.782Z,55.64
2023-04-26T08:02:53.789Z,56.68
2023-04-26T08:05:22.184Z,53.11
2023-04-26T08:07:50.246Z,50.97
2023-04-26T08:10:18.287Z,55.23
2023-04-26T08:12:46.353Z,53.66
2023-04-26T08:15:14.449Z,58.79
2023-04-26T08:17:43.790Z,57.06
2023-04-26T08:20:13.122Z,52.19
2023-04-26T08:22:41.053Z,53.60
2023-04-26T08:25:09.779Z,56.28
2023-04-26T08:27:37.842Z,48.43
2023-04-26T08:30:06.796Z,49.73
2023-04-26T08:32:35.538Z,47.61
2023-04-26T08:35:05.410Z,47.39
2023-04-26T08:37:33.379Z,50.87
2023-04-26T08:40:01.292Z,50.66
2023-04-26T08:42:30.183Z,47.84
2023-04-26T08:45:03.492Z,52.54
2023-04-26T08:47:39.712Z,56.26
2023-04-26T08:50:12.365Z,49.45
2023-04-26T08:52:41.141Z,50.42
2023-04-26T08:55:10.819Z,52.50
2023-04-26T08:57:40.868Z,55.87
2023-04-26T09:00:12.494Z,56.54
2023-04-26T09:02:42.992Z,50.61
2023-04-26T09:05:13.043Z,53.84
2023-04-26T09:07:45.751Z,51.23
2023-04-26T09:10:14.940Z,51.45
2023-04-26T09:12:42.843Z,53.01
2023-04-26T09:15:11.653Z,50.60
2023-04-26T09:17:41.856Z,50.76
2023-04-26T09:20:22.956Z,49.56
2023-04-26T09:22:52.196Z,50.12
2023-04-26T09:25:29.930Z,47.44
2023-04-26T09:27:58.441Z,50.87
2023-04-26T09:30:27.129Z,50.52
2023-04-26T09:32:56.655Z,51.54
2023-04-26T09:35:32.128Z,49.63
2023-04-26T09:38:07.993Z,45.91
2023-04-26T09:40:42.736Z,45.37
2023-04-26T09:43:12.866Z,45.06
2023-04-26T09:45:49.563Z,49.76
2023-04-26T09:48:22.355Z,45.65
2023-04-26T09:50:53.471Z,46.27
2023-04-26T09:53:33.548Z,43.44
2023-04-26T09:56:09.440Z,43.29
2023-04-26T09:58:39.063Z,44.56
2023-04-26T10:01:09.497Z,50.57
2023-04-26T10:03:38.518Z,48.27
2023-04-26T10:06:08.775Z,44.47
2023-04-26T10:08:37.406Z,47.04
2023-04-26T10:11:07.583Z,46.26
2023-04-26T10:13:36.388Z,49.66
2023-04-26T10:16:06.833Z,49.55
2023-04-26T10:18:35.757Z,48.89
2023-04-26T10:21:11.330Z,45.84
2023-04-26T10:23:39.788Z,50.48
2023-04-26T10:26:07.736Z,47.37
2023-04-26T10:29:03.033Z,50.53
2023-04-26T10:32:05.290Z,53.36
2023-04-26T10:34:36.261Z,44.74
2023-04-26T10:37:13.595Z,43.38
2023-04-26T10:39:42.561Z,48.51
2023-04-26T10:42:25.449Z,44.86
2023-04-26T10:44:54.247Z,49.40
2023-04-26T10:47:28.223Z,48.12
2023-04-26T10:50:05.652Z,50.26
2023-04-26T10:52:36.061Z,46.64
2023-04-26T10:55:06.261Z,48.66
2023-04-26T10:57:51.547Z,49.35
2023-04-26T11:00:31.953Z,48.56
2023-04-26T11:03:09.434Z,48.08
2023-04-26T11:05:56.512Z,48.07
2023-04-26T11:08:30.625Z,43.97
2023-04-26T11:11:11.237Z,47.14
2023-04-26T11:13:40.828Z,52.84
2023-04-26T11:16:10.244Z,47.33
2023-04-26T11:18:39.986Z,48.55
2023-04-26T11:21:08.576Z,45.92
2023-04-26T11:23:37.967Z,45.30
2023-04-26T11:26:08.355Z,47.12
2023-04-26T11:28:38.030Z,45.17
2023-04-26T11:31:07.257Z,48.48
2023-04-26T11:33:35.253Z,48.22
2023-04-26T11:36:04.128Z,48.57
2023-04-26T11:38:32.089Z,45.99
2023-04-26T11:41:02.765Z,48.58
2023-04-26T11:43:37.156Z,46.86
2023-04-26T11:46:05.909Z,43.51
2023-04-26T11:48:35.766Z,51.20
2023-04-26T11:51:05.248Z,52.66
2023-04-26T11:53:39.812Z,48.06
2023-04-26T11:56:17.384Z,47.32
2023-04-26T11:58:46.686Z,47.19
2023-04-26T12:01:22.282Z,48.26
2023-04-26T12:03:52.230Z,44.34
2023-04-26T12:06:20.839Z,45.83
2023-04-26T12:08:52.384Z,48.17
2023-04-26T12:11:22.100Z,47.46
2023-04-26T12:13:50.326Z,44.39
2023-04-26T12:16:26.357Z,47.74
2023-04-26T12:18:55.456Z,43.28
2023-04-26T12:21:25.174Z,45.78
2023-04-26T12:23:53.550Z,46.25
2023-04-26T12:26:22.863Z,46.45
2023-04-26T12:28:50.935Z,45.09
2023-04-26T12:31:18.885Z,49.73
2023-04-26T12:33:46.857Z,48.75
2023-04-26T12:36:15.035Z,47.92
2023-04-26T12:38:42.939Z,45.74
2023-04-26T12:41:11.442Z,51.99
2023-04-26T12:43:40.817Z,45.35
2023-04-26T12:46:08.912Z,48.33
2023-04-26T12:48:37.239Z,45.57
2023-04-26T12:51:05.456Z,47.44
2023-04-26T12:53:33.888Z,44.36
2023-04-26T12:56:01.944Z,44.38
2023-04-26T12:58:29.870Z,46.32
2023-04-26T13:00:59.216Z,46.74
2023-04-26T13:03:27.502Z,47.74
2023-04-26T13:05:56.115Z,50.50
2023-04-26T13:08:24.434Z,45.92
2023-04-26T13:10:52.426Z,48.48
2023-04-26T13:13:22.029Z,45.83
2023-04-26T13:15:54.431Z,43.66
2023-04-26T13:18:23.813Z,47.24
2023-04-26T13:20:51.934Z,46.30
2023-04-26T13:23:19.890Z,49.34
2023-04-26T13:25:48.035Z,48.19
2023-04-26T13:28:16.247Z,48.77
2023-04-26T13:30:44.355Z,47.58
2023-04-26T13:33:12.295Z,47.98
2023-04-26T13:35:41.607Z,45.75
2023-04-26T13:38:09.527Z,44.56
2023-04-26T13:40:39.026Z,46.83
2023-04-26T13:43:06.950Z,45.93
2023-04-26T13:45:36.120Z,44.87
2023-04-26T13:48:04.102Z,45.84
2023-04-26T13:50:32.075Z,52.23
2023-04-26T13:53:01.779Z,47.22
2023-04-26T13:55:30.801Z,46.88
2023-04-26T13:57:58.737Z,50.24
2023-04-26T14:00:27.280Z,50.66
2023-04-26T14:02:56.222Z,48.74
2023-04-26T14:05:24.662Z,50.88
2023-04-26T14:07:54.981Z,47.10
2023-04-26T14:10:24.666Z,46.40
2023-04-26T14:12:52.564Z,48.89
2023-04-26T14:15:20.492Z,55.59
2023-04-26T14:17:48.790Z,55.31
2023-04-26T14:20:16.899Z,49.82
2023-04-26T14:22:44.896Z,48.69
2023-04-26T14:25:12.816Z,48.11
2023-04-26T14:27:42.205Z,49.25
2023-04-26T14:30:10.689Z,48.60
2023-04-26T14:32:38.732Z,46.41
2023-04-26T14:35:07.292Z,48.13
2023-04-26T14:37:35.188Z,49.71
2023-04-26T14:40:03.193Z,50.69
2023-04-26T14:42:31.200Z,51.01
2023-04-26T14:45:01.363Z,51.00
2023-04-26T14:47:29.433Z,51.09
2023-04-26T14:49:58.237Z,52.44
2023-04-26T14:52:29.005Z,50.56
2023-04-26T14:54:57.376Z,52.42
2023-04-26T14:57:25.313Z,48.85
2023-04-26T14:59:53.269Z,51.24
2023-04-26T15:02:22.668Z,53.36
2023-04-26T15:04:50.829Z,56.58
2023-04-26T15:07:31.474Z,61.70
2023-04-26T15:10:00.681Z,70.22
2023-04-26T15:12:28.610Z,75.18
2023-04-26T15:14:56.554Z,80.02
2023-04-26T15:17:25.866Z,83.11
2023-04-26T15:19:53.909Z,86.62
2023-04-26T15:22:21.828Z,92.03
2023-04-26T15:24:51.124Z,93.97
2023-04-26T15:27:19.108Z,96.23
2023-04-26T15:29:47.089Z,98.28
2023-04-26T15:32:15.019Z,99.71
2023-04-26T15:34:45.185Z,100.00
2023-04-26T15:37:13.167Z,100.00
2023-04-26T15:39:41.197Z,100.00
2023-04-26T15:42:09.132Z,100.00
2023-04-26T15:44:37.057Z,100.00
2023-04-26T15:47:05.033Z,100.00
2023-04-26T15:49:33.010Z,100.00
2023-04-26T15:52:02.354Z,100.00
2023-04-26T15:54:30.243Z,100.00
2023-04-26T15:56:58.323Z,100.00
2023-04-26T15:59:26.421Z,100.00
2023-04-26T16:01:54.417Z,100.00
2023-04-26T16:04:22.782Z,100.00
2023-04-26T16:06:50.809Z,100.00
2023-04-26T16:09:24.704Z,100.00
2023-04-26T16:11:53.777Z,100.00
2023-04-26T16:14:21.999Z,100.00
2023-04-26T16:16:49.942Z,100.00
2023-04-26T16:19:18.438Z,100.00
2023-04-26T16:21:47.096Z,100.00
2023-04-26T16:24:15.027Z,100.00
2023-04-26T16:26:44.334Z,100.00
2023-04-26T16:29:12.205Z,100.00
2023-04-26T16:31:40.627Z,100.00
2023-04-26T16:34:08.560Z,100.00
2023-04-26T16:36:36.491Z,100.00
2023-04-26T16:39:04.488Z,100.00
2023-04-26T16:41:32.381Z,100.00
2023-04-26T16:44:01.652Z,100.00
2023-04-26T16:46:29.610Z,100.00
2023-04-26T16:48:57.792Z,100.00
2023-04-26T16:51:25.777Z,100.00
2023-04-26T16:53:53.656Z,100.00
2023-04-26T16:56:21.579Z,100.00
2023-04-26T16:58:49.485Z,100.00
2023-04-26T17:01:18.802Z,100.00
2023-04-26T17:03:47.336Z,100.00
2023-04-26T17:06:15.322Z,100.00
2023-04-26T17:08:43.235Z,100.00
2023-04-26T17:11:15.109Z,100.00
2023-04-26T17:13:43.276Z,100.00
2023-04-26T17:16:11.508Z,100.00
2023-04-26T17:18:41.880Z,100.00
2023-04-26T17:21:10.092Z,100.00
2023-04-26T17:23:37.992Z,100.00
2023-04-26T17:26:06.106Z,100.00
2023-04-26T17:28:34.204Z,100.00
2023-04-26T17:31:02.352Z,100.00
2023-04-26T17:33:30.271Z,100.00
2023-04-26T17:35:59.579Z,100.00
2023-04-26T17:38:27.550Z,100.00
2023-04-26T17:40:55.513Z,100.00
2023-04-26T17:43:23.418Z,100.00
2023-04-26T17:45:51.370Z,100.00
2023-04-26T17:48:19.318Z,100.00
2023-04-26T17:50:47.307Z,100.00
2023-04-26T17:53:16.642Z,100.00
2023-04-26T17:55:45.043Z,100.00
2023-04-26T17:58:12.948Z,100.00
2023-04-26T18:00:40.846Z,100.00
2023-04-26T18:03:08.881Z,100.00
2023-04-26T18:05:36.992Z,100.00
2023-04-26T18:08:05.362Z,100.00
2023-04-26T18:10:34.753Z,100.00
2023-04-26T18:13:02.837Z,100.00
2023-04-26T18:15:30.889Z,100.00
2023-04-26T18:17:58.870Z,100.00
2023-04-26T18:20:27.153Z,100.00
2023-04-26T18:22:55.065Z,100.00
2023-04-26T18:25:22.965Z,100.00
2023-04-26T18:27:52.234Z,100.00
2023-04-26T18:30:20.461Z,100.00
2023-04-26T18:32:48.418Z,100.00
2023-04-26T18:35:16.597Z,100.00
2023-04-26T18:37:44.518Z,100.00
2023-04-26T18:40:13.543Z,100.00
2023-04-26T18:42:42.089Z,100.00
2023-04-26T18:45:12.482Z,100.00
2023-04-26T18:47:41.316Z,100.00
2023-04-26T18:50:09.992Z,100.00
2023-04-26T18:52:39.707Z,100.00
2023-04-26T18:55:08.143Z,100.00
2023-04-26T18:57:36.093Z,100.00
2023-04-26T19:00:06.563Z,100.00
2023-04-26T19:02:40.030Z,100.00
2023-04-26T19:05:09.711Z,100.00
2023-04-26T19:07:37.883Z,100.00
2023-04-26T19:10:07.434Z,100.00
2023-04-26T19:12:35.338Z,100.00
2023-04-26T19:15:03.254Z,100.00
2023-04-26T19:17:33.377Z,100.00
2023-04-26T19:20:07.208Z,100.00
2023-04-26T19:22:35.081Z,100.00
2023-04-26T19:25:04.376Z,100.00
2023-04-26T19:27:32.382Z,100.00
2023-04-26T19:30:00.436Z,100.00
2023-04-26T19:32:28.388Z,100.00
2023-04-26T19:34:56.439Z,100.00
2023-04-26T19:37:25.775Z,100.00
2023-04-26T19:39:53.681Z,100.00
2023-04-26T19:42:21.754Z,100.00
2023-04-26T19:44:49.669Z,100.00
2023-04-26T19:47:18.000Z,100.00
2023-04-26T19:49:45.966Z,100.00
2023-04-26T19:52:13.839Z,100.00
2023-04-26T19:54:43.143Z,100.00
2023-04-26T19:57:11.031Z,100.00
2023-04-26T19:59:38.969Z,100.00
2023-04-26T20:02:07.665Z,100.00
2023-04-26T20:04:35.650Z,100.00
2023-04-26T20:07:05.034Z,100.00
2023-04-26T20:09:34.611Z,100.00
2023-04-26T20:12:04.435Z,100.00
2023-04-26T20:14:32.357Z,100.00
2023-04-26T20:17:02.393Z,100.00
2023-04-26T20:19:30.708Z,100.00
2023-04-26T20:21:58.599Z,100.00
2023-04-26T20:24:27.916Z,100.00
2023-04-26T20:26:56.101Z,100.00
2023-04-26T20:29:25.727Z,100.00
2023-04-26T20:31:53.663Z,100.00
2023-04-26T20:34:21.667Z,100.00
2023-04-26T20:36:49.572Z,100.00
2023-04-26T20:39:17.571Z,100.00
2023-04-26T20:41:45.470Z,100.00
2023-04-26T20:44:13.392Z,100.00
2023-04-26T20:46:42.635Z,100.00
2023-04-26T20:49:10.521Z,100.00
2023-04-26T20:51:38.428Z,100.00
2023-04-26T20:54:06.403Z,100.00
2023-04-26T20:56:34.296Z,100.00
2023-04-26T20:59:02.210Z,100.00
2023-04-26T21:01:30.647Z,100.00
2023-04-26T21:04:00.105Z,100.00
2023-04-26T21:06:28.329Z,100.00
2023-04-26T21:08:56.242Z,100.00
2023-04-26T21:11:24.140Z,100.00
2023-04-26T21:13:54.140Z,100.00
2023-04-26T21:16:22.186Z,100.00
2023-04-26T21:18:50.115Z,100.00
2023-04-26T21:21:19.604Z,100.00
2023-04-26T21:23:47.501Z,100.00
2023-04-26T21:26:15.595Z,100.00
2023-04-26T21:28:43.522Z,100.00
2023-04-26T21:31:11.744Z,100.00
2023-04-26T21:33:39.731Z,100.00
2023-04-26T21:36:08.206Z,100.00
2023-04-26T21:38:37.479Z,100.00
2023-04-26T21:41:05.536Z,100.00
2023-04-26T21:43:33.438Z,100.00
2023-04-26T21:46:01.359Z,100.00
2023-04-26T21:48:29.241Z,100.00
2023-04-26T21:50:57.169Z,100.00
2023-04-26T21:53:25.107Z,100.00
2023-04-26T21:55:55.080Z,100.00
2023-04-26T21:58:23.577Z,100.00
2023-04-26T22:00:51.847Z,100.00
2023-04-26T22:03:20.197Z,100.00
2023-04-26T22:05:48.172Z,100.00
2023-04-26T22:08:16.288Z,100.00
2023-04-26T22:10:44.262Z,100.00
2023-04-26T22:13:13.541Z,100.00
2023-04-26T22:15:41.454Z,100.00
2023-04-26T22:18:09.562Z,100.00
2023-04-26T22:20:37.469Z,100.00
2023-04-26T22:23:05.450Z,100.00
2023-04-26T22:25:33.377Z,100.00
2023-04-26T22:28:01.330Z,100.00
2023-04-26T22:30:30.755Z,100.00
2023-04-26T22:32:59.819Z,100.00
2023-04-26T22:35:28.866Z,100.00
2023-04-26T22:37:56.974Z,100.00
2023-04-26T22:40:24.888Z,100.00
2023-04-26T22:42:52.866Z,100.00
2023-04-26T22:45:21.350Z,100.00
2023-04-26T22:47:51.087Z,100.00
2023-04-26T22:50:19.360Z,100.00
2023-04-26T22:52:47.317Z,100.00
2023-04-26T22:55:15.207Z,100.00
2023-04-26T22:57:43.080Z,100.00
2023-04-26T23:00:12.638Z,100.00
2023-04-26T23:02:40.873Z,100.00
2023-04-26T23:05:11.454Z,100.00
2023-04-26T23:07:39.550Z,100.00
2023-04-26T23:10:08.378Z,100.00
2023-04-26T23:12:37.093Z,100.00
2023-04-26T23:15:06.109Z,100.00
2023-04-26T23:17:34.891Z,100.00
2023-04-26T23:20:11.633Z,100.00
2023-04-26T23:22:41.338Z,100.00
2023-04-26T23:25:10.740Z,100.00
2023-04-26T23:27:39.116Z,100.00
2023-04-26T23:30:08.429Z,100.00
2023-04-26T23:32:36.496Z,100.00
2023-04-26T23:35:04.615Z,100.00
2023-04-26T23:37:32.574Z,100.00
2023-04-26T23:40:01.974Z,100.00
2023-04-26T23:42:29.874Z,100.00
2023-04-26T23:44:57.777Z,100.00
2023-04-26T23:47:25.797Z,100.00
2023-04-26T23:49:53.735Z,100.00
2023-04-26T23:52:21.620Z,100.00
2023-04-26T23:54:49.500Z,100.00
2023-04-26T23:57:18.827Z,100.00
2023-04-26T23:59:46.778Z,100.00
